Time;durP1;ratioP1;P1;durP2;ratioP2;P2;SDS_P1;SDS_P2;PMS_P1;PMS_P2;Temp;Humidity;BMP_temperature;BMP_pressure;BME280_temperature;BME280_humidity;BME280_pressure;Samples;Min_cycle;Max_cycle;Signal;HPM_P1;HPM_P2
2023/03/23 00:00:08;;;;;;;5.57;3.55;;;;;;;12.47;100.00;100274.56;5213434;28;20032;-83
2023/03/23 00:02:38;;;;;;;7.22;3.55;;;;;;;12.52;100.00;100253.28;5212343;28;20032;-81
2023/03/23 00:05:09;;;;;;;6.65;3.10;;;;;;;12.55;100.00;100271.75;5213100;28;20014;-83
2023/03/23 00:07:45;;;;;;;7.93;3.22;;;;;;;12.63;100.00;100263.53;5210981;28;20033;-83
2023/03/23 00:10:16;;;;;;;8.55;4.00;;;;;;;12.67;100.00;100266.66;5212541;28;20108;-82
2023/03/23 00:12:49;;;;;;;8.27;3.47;;;;;;;12.63;100.00;100268.91;5207584;28;20021;-83
2023/03/23 00:15:24;;;;;;;5.78;3.50;;;;;;;12.69;100.00;100265.44;5212110;28;20041;-83
2023/03/23 00:18:02;;;;;;;8.57;3.88;;;;;;;12.64;100.00;100254.41;5211880;28;20100;-83
2023/03/23 00:20:40;;;;;;;12.18;4.03;;;;;;;12.66;100.00;100260.44;5209266;28;20060;-82
2023/03/23 00:23:11;;;;;;;7.13;3.45;;;;;;;12.60;100.00;100246.91;5201726;28;20390;-83
2023/03/23 00:25:41;;;;;;;7.22;3.72;;;;;;;12.64;100.00;100257.09;5212272;28;20036;-83
2023/03/23 00:28:12;;;;;;;6.10;3.80;;;;;;;12.66;100.00;100252.38;5212971;28;20052;-82
2023/03/23 00:30:44;;;;;;;8.00;4.60;;;;;;;12.63;100.00;100244.69;5211982;28;20063;-83
2023/03/23 00:33:16;;;;;;;6.72;4.13;;;;;;;12.61;100.00;100248.63;5210742;28;20029;-83
2023/03/23 00:35:47;;;;;;;5.45;3.60;;;;;;;12.58;100.00;100251.69;5213608;28;20025;-83
2023/03/23 00:38:18;;;;;;;7.43;3.80;;;;;;;12.54;100.00;100237.78;5214158;28;20045;-83
2023/03/23 00:40:49;;;;;;;7.50;3.92;;;;;;;12.49;100.00;100237.53;5213848;28;20029;-83
2023/03/23 00:43:20;;;;;;;5.90;3.67;;;;;;;12.55;100.00;100227.84;5212370;28;20029;-83
2023/03/23 00:45:52;;;;;;;6.60;3.83;;;;;;;12.53;100.00;100224.53;5213819;28;20057;-81
2023/03/23 00:48:24;;;;;;;7.28;3.95;;;;;;;12.54;100.00;100231.56;5213700;28;20025;-80
2023/03/23 00:50:55;;;;;;;6.28;3.40;;;;;;;12.54;100.00;100236.94;5209363;28;20112;-80
2023/03/23 00:53:26;;;;;;;8.18;3.88;;;;;;;12.53;100.00;100230.72;5209594;28;20057;-80
2023/03/23 00:55:56;;;;;;;9.60;3.30;;;;;;;12.58;100.00;100238.22;5208563;28;20089;-80
2023/03/23 00:58:27;;;;;;;8.38;3.75;;;;;;;12.62;100.00;100243.03;5208790;28;20064;-81
2023/03/23 01:00:57;;;;;;;5.80;3.78;;;;;;;12.61;100.00;100249.44;5208972;28;20120;-82
2023/03/23 01:03:29;;;;;;;6.18;3.60;;;;;;;12.57;100.00;100245.47;5209368;28;20029;-82
2023/03/23 01:06:05;;;;;;;4.88;3.40;;;;;;;12.55;100.00;100247.53;5210343;28;20036;-80
2023/03/23 01:08:39;;;;;;;6.45;3.50;;;;;;;12.53;100.00;100254.13;5210053;28;20076;-80
2023/03/23 01:11:09;;;;;;;8.23;4.15;;;;;;;12.56;100.00;100246.50;5208561;28;20033;-80
2023/03/23 01:13:42;;;;;;;7.07;3.67;;;;;;;12.57;100.00;100248.16;5209527;28;20024;-81
2023/03/23 01:16:12;;;;;;;6.90;3.28;;;;;;;12.59;100.00;100251.47;5208818;28;20595;-81
2023/03/23 01:18:43;;;;;;;5.47;3.10;;;;;;;12.56;100.00;100251.06;5208999;28;20095;-82
2023/03/23 01:21:17;;;;;;;5.78;3.50;;;;;;;12.59;100.00;100264.94;5200511;28;20026;-82
2023/03/23 01:23:48;;;;;;;6.75;3.88;;;;;;;12.64;100.00;100257.09;5203030;28;20025;-82
2023/03/23 01:26:22;;;;;;;4.38;2.97;;;;;;;12.67;100.00;100250.53;5208830;28;20021;-81
2023/03/23 01:28:53;;;;;;;5.60;3.22;;;;;;;12.66;100.00;100246.16;5208345;28;20052;-82
2023/03/23 01:31:26;;;;;;;8.23;3.15;;;;;;;12.67;100.00;100258.59;5207976;28;20026;-81
2023/03/23 01:33:56;;;;;;;5.90;3.55;;;;;;;12.68;100.00;100249.50;5206488;28;20028;-82
2023/03/23 01:36:28;;;;;;;8.75;4.20;;;;;;;12.66;100.00;100252.38;5208805;28;20025;-81
2023/03/23 01:39:03;;;;;;;4.25;3.17;;;;;;;12.63;100.00;100250.06;5208150;28;20021;-82
2023/03/23 01:41:35;;;;;;;5.75;3.22;;;;;;;12.59;100.00;100240.72;5207838;28;20030;-82
2023/03/23 01:44:08;;;;;;;5.97;3.38;;;;;;;12.58;100.00;100222.91;5208159;28;20028;-81
2023/03/23 01:46:38;;;;;;;7.22;4.05;;;;;;;12.58;100.00;100222.91;5207657;28;20056;-81
2023/03/23 01:49:13;;;;;;;7.72;3.92;;;;;;;12.58;100.00;100212.16;5208252;28;20124;-82
2023/03/23 01:51:48;;;;;;;8.52;4.18;;;;;;;12.56;100.00;100206.13;5207395;28;20029;-81
2023/03/23 01:54:21;;;;;;;6.00;4.03;;;;;;;12.55;100.00;100200.94;5208046;28;20541;-81
2023/03/23 01:57:08;;;;;;;7.05;4.30;;;;;;;12.53;100.00;100193.06;5206980;28;20476;-82
2023/03/23 01:59:42;;;;;;;5.70;3.78;;;;;;;12.54;100.00;100175.06;5207401;28;20071;-82
2023/03/23 02:02:14;;;;;;;6.05;3.72;;;;;;;12.52;100.00;100196.78;5205259;28;20049;-81
2023/03/23 02:04:46;;;;;;;10.65;3.80;;;;;;;12.52;100.00;100195.97;5203017;28;20061;-81
2023/03/23 02:07:20;;;;;;;6.10;3.47;;;;;;;12.53;100.00;100203.81;5206195;28;20060;-81
2023/03/23 02:09:51;;;;;;;5.40;2.92;;;;;;;12.51;100.00;100205.06;5210224;28;20076;-82
2023/03/23 02:12:22;;;;;;;6.60;3.10;;;;;;;12.48;100.00;100206.28;5205559;28;20022;-82
2023/03/23 02:14:53;;;;;;;5.68;3.45;;;;;;;12.49;100.00;100224.06;5210312;28;20033;-82
2023/03/23 02:17:56;;;;;;;5.60;3.28;;;;;;;12.50;100.00;100231.13;5209666;28;20025;-81
2023/03/23 02:20:55;;;;;;;5.00;3.10;;;;;;;12.48;100.00;100230.47;5208771;28;20112;-81
2023/03/23 02:23:54;;;;;;;5.20;3.33;;;;;;;12.53;100.00;100221.84;5202493;28;20025;-82
2023/03/23 02:26:57;;;;;;;6.20;3.47;;;;;;;12.56;100.00;100230.34;5210991;28;20026;-82
2023/03/23 02:29:28;;;;;;;7.15;3.55;;;;;;;12.55;100.00;100227.84;5210835;28;20049;-81
2023/03/23 02:32:21;;;;;;;6.22;3.30;;;;;;;12.50;100.00;100217.69;5209186;28;20068;-82
2023/03/23 02:34:59;;;;;;;9.70;3.42;;;;;;;12.52;100.00;100222.88;5211443;28;20053;-82
2023/03/23 02:37:36;;;;;;;6.47;3.42;;;;;;;12.54;100.00;100208.16;5211135;28;20174;-82
2023/03/23 02:40:16;;;;;;;9.35;2.75;;;;;;;12.52;100.00;100220.19;5211024;28;20031;-81
2023/03/23 02:42:52;;;;;;;7.80;3.00;;;;;;;12.50;100.00;100219.50;5210363;28;20025;-82
2023/03/23 02:45:26;;;;;;;5.53;2.63;;;;;;;12.47;100.00;100233.38;5209822;28;20375;-82
2023/03/23 02:48:06;;;;;;;6.95;2.13;;;;;;;12.50;100.00;100222.22;5209197;28;20032;-82
2023/03/23 02:50:49;;;;;;;4.63;2.53;;;;;;;12.49;100.00;100228.63;5210092;28;20032;-82
2023/03/23 02:53:31;;;;;;;8.10;2.60;;;;;;;12.50;100.00;100217.69;5210271;28;20022;-82
2023/03/23 02:56:14;;;;;;;4.90;2.58;;;;;;;12.51;100.00;100210.44;5210516;28;20029;-82
2023/03/23 02:58:45;;;;;;;10.10;2.00;;;;;;;12.52;100.00;100215.63;5209834;28;20025;-82
2023/03/23 03:01:36;;;;;;;4.18;2.40;;;;;;;12.48;100.00;100222.41;5210648;28;20032;-81
2023/03/23 03:04:14;;;;;;;7.10;2.15;;;;;;;12.48;100.00;100233.16;5226749;28;20048;-82
2023/03/23 03:07:07;;;;;;;7.13;2.15;;;;;;;12.43;100.00;100219.47;5226843;28;20052;-82
2023/03/23 03:09:57;;;;;;;6.38;2.10;;;;;;;12.42;100.00;100225.88;5211797;28;20040;-82
2023/03/23 03:12:54;;;;;;;6.80;1.70;;;;;;;12.43;100.00;100209.53;5208021;28;20021;-82
2023/03/23 03:16:02;;;;;;;7.90;1.80;;;;;;;12.43;100.00;100230.22;5212320;28;20061;-81
2023/03/23 03:18:43;;;;;;;6.43;2.42;;;;;;;12.38;100.00;100221.91;5230454;28;20048;-82
2023/03/23 03:21:16;;;;;;;3.90;1.50;;;;;;;12.40;100.00;100225.25;5207151;28;20053;-82
2023/03/23 03:23:49;;;;;;;3.90;1.30;;;;;;;12.39;100.00;100226.25;5210004;28;20101;-82
2023/03/23 03:26:21;;;;;;;6.07;1.80;;;;;;;12.36;100.00;100222.09;5215683;28;20026;-82
2023/03/23 03:28:53;;;;;;;4.38;1.63;;;;;;;12.34;100.00;100216.06;5214977;28;20033;-82
2023/03/23 03:31:29;;;;;;;3.45;1.33;;;;;;;12.32;100.00;100212.75;5215426;28;20029;-82
2023/03/23 03:34:01;;;;;;;5.45;1.95;;;;;;;12.31;100.00;100216.47;5212174;28;20441;-82
2023/03/23 03:36:34;;;;;;;6.32;1.42;;;;;;;12.33;100.00;100218.97;5214589;28;20036;-82
2023/03/23 03:39:08;;;;;;;8.15;1.73;;;;;;;12.34;100.00;100221.44;5215279;28;20021;-82
2023/03/23 03:41:39;;;;;;;6.20;1.52;;;;;;;12.41;100.00;100216.16;5214023;28;20049;-82
2023/03/23 03:44:10;;;;;;;4.47;1.35;;;;;;;12.39;100.00;100218.19;5213528;28;20429;-82
2023/03/23 03:46:40;;;;;;;8.77;1.55;;;;;;;12.39;100.00;100213.63;5212538;28;20124;-82
2023/03/23 03:49:12;;;;;;;6.28;1.15;;;;;;;12.38;100.00;100222.72;5212735;28;20033;-82
2023/03/23 03:51:42;;;;;;;8.07;1.25;;;;;;;12.41;100.00;100224.22;5208232;28;20029;-81
2023/03/23 03:54:13;;;;;;;8.73;1.42;;;;;;;12.37;100.00;100223.75;5208587;28;20108;-82
2023/03/23 03:56:45;;;;;;;6.72;1.58;;;;;;;12.41;100.00;100234.97;5207898;28;20045;-82
2023/03/23 03:59:15;;;;;;;8.98;1.30;;;;;;;12.38;100.00;100227.28;5223916;28;20055;-82
2023/03/23 04:01:46;;;;;;;7.60;1.65;;;;;;;12.40;100.00;100233.31;5208157;28;20060;-82
2023/03/23 04:04:16;;;;;;;10.73;1.73;;;;;;;12.37;100.00;100226.47;5208399;28;20027;-81
2023/03/23 04:06:48;;;;;;;6.80;1.40;;;;;;;12.39;100.00;100215.50;5207358;28;20116;-82
2023/03/23 04:09:19;;;;;;;7.13;2.03;;;;;;;12.38;100.00;100220.03;5207720;28;20021;-82
2023/03/23 04:11:49;;;;;;;9.07;1.48;;;;;;;12.38;100.00;100227.28;5207340;28;20045;-81
2023/03/23 04:14:20;;;;;;;5.18;1.70;;;;;;;12.34;100.00;100229.53;5207657;28;20067;-81
2023/03/23 04:16:56;;;;;;;9.88;1.15;;;;;;;12.35;100.00;100233.03;5206939;28;20052;-81
2023/03/23 04:19:28;;;;;;;4.80;1.75;;;;;;;12.35;100.00;100249.19;5207214;28;20374;-82
2023/03/23 04:21:59;;;;;;;4.85;1.40;;;;;;;12.40;100.00;100230.63;5206258;28;20030;-82
2023/03/23 04:24:33;;;;;;;8.13;1.35;;;;;;;12.43;100.00;100231.06;5207027;28;20083;-82
2023/03/23 04:27:03;;;;;;;6.60;1.38;;;;;;;12.46;100.00;100227.16;5206715;28;20093;-82
2023/03/23 04:29:34;;;;;;;9.50;2.05;;;;;;;12.40;100.00;100226.09;5206898;28;20033;-82
2023/03/23 04:32:05;;;;;;;11.05;2.08;;;;;;;12.43;100.00;100243.69;5205037;28;20029;-81
2023/03/23 04:34:35;;;;;;;6.82;1.50;;;;;;;12.43;100.00;100231.06;5206421;28;20072;-81
2023/03/23 04:37:07;;;;;;;11.43;1.92;;;;;;;12.40;100.00;100236.00;5206409;28;20029;-82
2023/03/23 04:39:39;;;;;;;13.55;2.08;;;;;;;12.38;100.00;100244.25;5207122;28;20087;-81
2023/03/23 04:42:11;;;;;;;7.53;2.30;;;;;;;12.35;100.00;100251.88;5207543;28;20402;-81
2023/03/23 04:44:43;;;;;;;6.68;1.60;;;;;;;12.33;100.00;100241.31;5206618;28;20059;-82
2023/03/23 04:47:17;;;;;;;9.95;1.80;;;;;;;12.33;100.00;100246.69;5206930;28;20041;-82
2023/03/23 04:49:47;;;;;;;9.00;1.60;;;;;;;12.35;100.00;100249.19;5206528;28;20063;-82
2023/03/23 04:52:20;;;;;;;11.98;1.77;;;;;;;12.32;100.00;100249.59;5206836;28;20033;-82
2023/03/23 04:54:51;;;;;;;9.30;2.00;;;;;;;12.31;100.00;100254.13;5206424;28;20028;-82
2023/03/23 04:57:22;;;;;;;7.10;1.85;;;;;;;12.35;100.00;100254.56;5206410;28;20029;-81
2023/03/23 04:59:52;;;;;;;7.72;1.90;;;;;;;12.37;100.00;100241.75;5205523;28;20107;-82
2023/03/23 05:02:25;;;;;;;5.07;1.85;;;;;;;12.39;100.00;100247.78;5205690;28;20120;-81
2023/03/23 05:04:57;;;;;;;8.48;2.13;;;;;;;12.32;100.00;100236.97;5205702;28;20025;-82
2023/03/23 05:07:27;;;;;;;11.63;2.15;;;;;;;12.26;100.00;100245.81;5205254;28;20067;-82
2023/03/23 05:09:58;;;;;;;11.52;1.92;;;;;;;12.20;100.00;100251.97;5205436;28;20037;-82
2023/03/23 05:12:28;;;;;;;7.25;1.40;;;;;;;12.14;100.00;100250.84;5205389;28;20036;-82
2023/03/23 05:14:59;;;;;;;10.18;1.80;;;;;;;12.05;100.00;100257.38;5205611;28;20033;-81
2023/03/23 05:17:32;;;;;;;10.00;1.73;;;;;;;12.01;100.00;100258.78;5204470;28;20025;-81
2023/03/23 05:20:07;;;;;;;10.52;1.83;;;;;;;11.99;100.00;100259.97;5205409;28;20453;-80
2023/03/23 05:22:38;;;;;;;9.75;1.58;;;;;;;11.97;100.00;100252.09;5204837;28;20029;-81
2023/03/23 05:25:10;;;;;;;6.78;1.50;;;;;;;12.01;100.00;100248.03;5205314;28;20040;-81
2023/03/23 05:27:43;;;;;;;5.10;2.08;;;;;;;12.02;100.00;100260.44;5205030;28;20033;-82
2023/03/23 05:30:16;;;;;;;11.02;1.80;;;;;;;12.07;100.00;100258.00;5204839;28;20052;-81
2023/03/23 05:32:50;;;;;;;8.77;1.65;;;;;;;12.03;100.00;100261.28;5203019;28;20029;-81
2023/03/23 05:35:21;;;;;;;11.82;1.95;;;;;;;12.02;100.00;100262.28;5204215;28;20025;-82
2023/03/23 05:37:53;;;;;;;14.48;2.17;;;;;;;12.02;100.00;100265.81;5203667;28;20032;-81
2023/03/23 05:40:25;;;;;;;8.75;1.98;;;;;;;11.99;100.00;100268.03;5203643;28;20112;-81
2023/03/23 05:42:58;;;;;;;6.68;1.52;;;;;;;12.00;100.00;100267.88;5204743;28;20025;-81
2023/03/23 05:45:29;;;;;;;10.18;1.90;;;;;;;12.06;100.00;100267.09;5203729;28;20055;-81
2023/03/23 05:47:59;;;;;;;4.63;1.10;;;;;;;12.07;100.00;100267.94;5203955;28;20423;-82
2023/03/23 05:50:30;;;;;;;10.00;1.73;;;;;;;12.09;100.00;100268.56;5204004;28;20084;-82
2023/03/23 05:53:01;;;;;;;10.95;2.05;;;;;;;12.07;100.00;100267.94;5204044;28;20041;-81
2023/03/23 05:55:31;;;;;;;8.57;2.30;;;;;;;12.05;100.00;100260.06;5203629;28;20029;-82
2023/03/23 05:58:02;;;;;;;4.30;1.38;;;;;;;12.07;100.00;100279.53;5202633;28;20385;-81
2023/03/23 06:00:34;;;;;;;8.73;2.50;;;;;;;12.05;100.00;100276.19;5203619;28;20021;-81
2023/03/23 06:03:05;;;;;;;14.02;1.85;;;;;;;12.04;100.00;100277.19;5218821;28;20101;-81
2023/03/23 06:05:36;;;;;;;12.23;1.70;;;;;;;12.04;100.00;100271.81;5203549;28;20083;-81
2023/03/23 06:08:07;;;;;;;6.65;1.63;;;;;;;11.99;100.00;100274.25;5202625;28;20021;-81
2023/03/23 06:10:37;;;;;;;8.50;1.70;;;;;;;12.03;100.00;100283.59;5203896;28;20116;-81
2023/03/23 06:13:08;;;;;;;6.35;1.60;;;;;;;12.01;100.00;100291.03;5199273;28;20013;-82
2023/03/23 06:15:38;;;;;;;6.38;1.60;;;;;;;11.99;100.00;100284.16;5205600;28;20069;-82
2023/03/23 06:18:09;;;;;;;6.82;1.85;;;;;;;12.03;100.00;100293.53;5206995;28;20025;-81
2023/03/23 06:20:40;;;;;;;9.30;2.08;;;;;;;12.04;100.00;100292.50;5212133;28;20101;-80
2023/03/23 06:23:10;;;;;;;9.75;2.17;;;;;;;12.06;100.00;100290.47;5210793;28;20452;-80
2023/03/23 06:25:41;;;;;;;5.15;1.55;;;;;;;12.05;100.00;100307.59;5210111;28;20032;-78
2023/03/23 06:28:11;;;;;;;14.35;2.25;;;;;;;12.05;100.00;100292.34;5209128;28;20025;-78
2023/03/23 06:30:42;;;;;;;8.90;2.35;;;;;;;12.01;100.00;100290.22;5209363;28;20021;-79
2023/03/23 06:33:12;;;;;;;8.02;1.73;;;;;;;12.03;100.00;100305.09;5208486;28;20030;-79
2023/03/23 06:35:43;;;;;;;6.93;2.10;;;;;;;12.05;100.00;100302.22;5210611;28;20033;-79
2023/03/23 06:38:14;;;;;;;11.43;2.22;;;;;;;12.05;100.00;100296.84;5209076;28;20029;-79
2023/03/23 06:40:46;;;;;;;6.90;1.85;;;;;;;12.07;100.00;100311.78;5206042;28;20021;-79
2023/03/23 06:43:17;;;;;;;9.88;2.20;;;;;;;12.09;100.00;100301.66;5202513;28;20440;-78
2023/03/23 06:45:48;;;;;;;7.15;1.77;;;;;;;12.11;100.00;100288.06;5202451;28;20025;-79
2023/03/23 06:48:18;;;;;;;11.50;1.73;;;;;;;12.11;100.00;100290.75;5202624;28;20087;-78
2023/03/23 06:50:48;;;;;;;8.30;1.60;;;;;;;12.12;100.00;100289.72;5203554;28;20028;-79
2023/03/23 06:53:20;;;;;;;12.27;2.00;;;;;;;12.14;100.00;100307.31;5219121;28;20049;-79
2023/03/23 06:55:51;;;;;;;11.63;2.83;;;;;;;12.07;100.00;100376.31;5206919;28;20413;-79
2023/03/23 06:58:23;;;;;;;2.72;0.63;;;;;;;11.38;100.00;100355.06;5210584;28;20033;-79
2023/03/23 07:00:56;;;;;;;2.03;0.80;;;;;;;11.06;100.00;100364.25;5210933;28;20096;-80
2023/03/23 07:03:27;;;;;;;1.88;0.90;;;;;;;10.74;100.00;100377.91;5210573;28;20060;-81
2023/03/23 07:05:59;;;;;;;3.25;1.08;;;;;;;10.47;100.00;100377.44;5209723;28;20105;-80
2023/03/23 07:08:30;;;;;;;5.50;1.40;;;;;;;10.27;100.00;100373.53;5208954;28;20189;-80
2023/03/23 07:11:01;;;;;;;3.33;1.77;;;;;;;10.12;100.00;100374.22;5208773;28;20021;-80
2023/03/23 07:13:32;;;;;;;3.15;1.00;;;;;;;9.98;100.00;100383.00;5205276;28;20394;-80
2023/03/23 07:16:05;;;;;;;2.38;0.68;;;;;;;9.82;100.00;100380.38;5208211;28;20025;-79
2023/03/23 07:18:36;;;;;;;3.03;1.00;;;;;;;9.72;100.00;100393.97;5208418;28;20060;-81
2023/03/23 07:21:07;;;;;;;3.55;1.35;;;;;;;9.57;100.00;100393.00;5208994;28;20537;-80
2023/03/23 07:23:37;;;;;;;5.75;1.25;;;;;;;9.50;100.00;100389.34;5211104;28;20113;-80
2023/03/23 07:26:08;;;;;;;9.40;3.90;;;;;;;9.44;100.00;100398.03;5210624;28;20035;-80
2023/03/23 07:28:39;;;;;;;6.97;2.35;;;;;;;9.32;100.00;100402.91;5209985;28;20047;-80
2023/03/23 07:31:10;;;;;;;9.02;3.65;;;;;;;9.30;100.00;100396.91;5209002;28;20013;-79
2023/03/23 07:33:41;;;;;;;7.47;3.65;;;;;;;9.28;100.00;100410.44;5207523;28;20048;-80
2023/03/23 07:36:12;;;;;;;6.78;3.60;;;;;;;9.24;100.00;100395.75;5209826;28;20076;-80
2023/03/23 07:38:43;;;;;;;5.97;3.00;;;;;;;9.16;100.00;100410.97;5208102;28;20026;-79
2023/03/23 07:41:14;;;;;;;9.65;4.05;;;;;;;9.13;100.00;100397.91;5208624;28;20034;-81
2023/03/23 07:43:45;;;;;;;14.63;7.82;;;;;;;9.07;100.00;100416.31;5208473;28;20026;-80
2023/03/23 07:46:15;;;;;;;9.55;3.85;;;;;;;9.03;100.00;100409.63;5208944;28;20036;-80
2023/03/23 07:48:46;;;;;;;6.28;1.20;;;;;;;9.05;100.00;100412.16;5207312;28;20093;-80
2023/03/23 07:51:17;;;;;;;4.47;1.17;;;;;;;8.99;100.00;100419.00;5207077;28;20029;-79
2023/03/23 07:53:47;;;;;;;6.05;2.50;;;;;;;9.02;100.00;100421.31;5206961;28;20041;-80
2023/03/23 07:56:19;;;;;;;3.20;1.50;;;;;;;9.03;100.00;100417.63;5207390;28;20103;-80
2023/03/23 07:58:51;;;;;;;1.30;0.70;;;;;;;8.98;100.00;100408.44;5206803;28;20732;-80
2023/03/23 08:01:23;;;;;;;5.78;0.80;;;;;;;8.99;100.00;100419.00;5207825;28;20068;-80
2023/03/23 08:03:56;;;;;;;4.85;1.33;;;;;;;9.01;100.00;100418.81;5209475;28;20026;-84
2023/03/23 08:06:27;;;;;;;4.07;0.80;;;;;;;9.02;100.00;100409.78;5210049;28;20117;-86
2023/03/23 08:08:58;;;;;;;3.28;1.00;;;;;;;9.04;100.00;100411.31;5207450;28;20486;-83
2023/03/23 08:11:28;;;;;;;4.47;1.25;;;;;;;9.04;100.00;100410.47;5204870;28;20020;-84
2023/03/23 08:13:58;;;;;;;4.97;1.52;;;;;;;9.13;100.00;100422.00;5205507;28;20060;-85
2023/03/23 08:16:29;;;;;;;3.95;1.90;;;;;;;9.21;100.00;100422.84;5204779;28;20022;-84
2023/03/23 08:19:00;;;;;;;5.75;2.55;;;;;;;9.29;100.00;100430.03;5204736;28;20516;-84
2023/03/23 08:21:30;;;;;;;5.63;2.00;;;;;;;9.37;100.00;100434.53;5204233;28;20017;-84
2023/03/23 08:24:01;;;;;;;5.65;1.00;;;;;;;9.48;100.00;100426.16;5204537;28;20437;-84
2023/03/23 08:26:31;;;;;;;7.18;1.85;;;;;;;9.59;100.00;100436.53;5204255;28;20021;-84
2023/03/23 08:29:03;;;;;;;4.05;1.55;;;;;;;9.70;100.00;100444.22;5204712;28;20394;-83
2023/03/23 08:31:35;;;;;;;5.70;2.55;;;;;;;9.75;100.00;100433.00;5204649;28;20033;-83
2023/03/23 08:34:05;;;;;;;6.57;3.05;;;;;;;9.78;100.00;100438.81;5204674;28;20124;-84
2023/03/23 08:36:37;;;;;;;3.63;1.60;;;;;;;9.83;100.00;100446.34;5203798;28;20100;-83
2023/03/23 08:39:08;;;;;;;3.17;1.20;;;;;;;9.85;100.00;100447.03;5204373;28;20029;-84
2023/03/23 08:41:38;;;;;;;3.60;1.73;;;;;;;9.87;100.00;100445.00;5203671;28;20025;-84
2023/03/23 08:44:09;;;;;;;5.63;1.50;;;;;;;9.90;100.00;100462.59;5204356;28;20030;-84
2023/03/23 08:46:40;;;;;;;5.47;1.50;;;;;;;10.01;100.00;100459.53;5203744;28;20059;-85
2023/03/23 08:49:10;;;;;;;4.15;1.10;;;;;;;9.96;100.00;100459.22;5205301;28;20021;-83
2023/03/23 08:51:41;;;;;;;2.45;1.30;;;;;;;9.99;100.00;100446.34;5205478;28;20379;-83
2023/03/23 08:54:12;;;;;;;6.88;1.95;;;;;;;10.08;100.00;100449.81;5220676;28;20064;-83
2023/03/23 08:56:43;;;;;;;7.15;1.42;;;;;;;10.17;100.00;100446.09;5203487;28;20554;-84
2023/03/23 08:59:13;;;;;;;5.75;1.67;;;;;;;10.20;100.00;100429.66;5203695;28;20087;-84
2023/03/23 09:01:44;;;;;;;6.75;1.50;;;;;;;10.25;100.00;100437.22;5203876;28;20482;-84
2023/03/23 09:04:15;;;;;;;13.63;1.98;;;;;;;10.27;100.00;100437.88;5219458;28;20032;-83
2023/03/23 09:06:45;;;;;;;7.22;1.50;;;;;;;10.30;100.00;100437.53;5203612;28;20017;-84
2023/03/23 09:09:16;;;;;;;6.95;1.30;;;;;;;10.33;100.00;100442.53;5203790;28;20032;-84
2023/03/23 09:11:46;;;;;;;5.15;1.52;;;;;;;10.42;100.00;100448.69;5201695;28;20087;-84
2023/03/23 09:14:17;;;;;;;48.95;26.67;;;;;;;10.42;100.00;100451.38;5200623;28;20426;-84
2023/03/23 09:16:47;;;;;;;6.25;1.65;;;;;;;10.50;100.00;100443.31;5202717;28;20017;-84
2023/03/23 09:19:18;;;;;;;4.65;1.67;;;;;;;10.50;100.00;100446.81;5204020;28;20441;-84
2023/03/23 09:21:48;;;;;;;6.30;3.88;;;;;;;10.59;100.00;100451.13;5202773;28;20033;-83
2023/03/23 09:24:19;;;;;;;5.72;1.38;;;;;;;10.51;100.00;100450.34;5203387;28;20060;-82
2023/03/23 09:26:49;;;;;;;7.72;1.40;;;;;;;10.74;100.00;100453.03;5203215;28;20048;-84
2023/03/23 09:29:20;;;;;;;7.78;1.75;;;;;;;10.83;100.00;100446.63;5204350;28;20044;-83
2023/03/23 09:31:51;;;;;;;4.88;1.40;;;;;;;10.94;100.00;100445.38;5204058;28;20549;-84
2023/03/23 09:34:22;;;;;;;7.65;1.80;;;;;;;11.05;100.00;100448.50;5204080;28;20092;-84
2023/03/23 09:36:52;;;;;;;4.78;1.05;;;;;;;11.10;100.00;100440.75;5203123;28;20045;-84
2023/03/23 09:39:23;;;;;;;4.63;0.93;;;;;;;11.00;100.00;100448.19;5204161;28;20647;-84
2023/03/23 09:42:18;;;;;;;10.80;2.03;;;;;;;11.00;100.00;100437.47;5204191;28;20025;-83
2023/03/23 09:45:03;;;;;;;4.80;1.58;;;;;;;11.55;100.00;100452.44;5204850;28;20029;-83
2023/03/23 09:47:53;;;;;;;4.82;1.40;;;;;;;11.85;100.00;100442.59;5205717;28;20105;-83
2023/03/23 09:50:32;;;;;;;5.63;1.10;;;;;;;11.96;100.00;100449.38;5206437;28;20037;-83
2023/03/23 09:53:07;;;;;;;4.43;1.42;;;;;;;11.72;100.00;100441.53;5204813;28;20055;-84
2023/03/23 09:55:37;;;;;;;;;;;;;;;12.30;100.00;100445.25;5206045;28;20633;-83
2023/03/23 09:58:16;;;;;;;10.05;1.85;;;;;;;12.76;100.00;100453.09;5205146;28;19916;-82
2023/03/23 10:00:52;;;;;;;8.07;1.90;;;;;;;12.96;100.00;100444.19;5205745;28;20032;-83
2023/03/23 10:03:27;;;;;;;5.80;1.40;;;;;;;13.25;100.00;100455.03;5203855;28;20026;-85
2023/03/23 10:05:58;;;;;;;5.70;1.50;;;;;;;13.65;100.00;100443.56;5202673;28;20028;-84
2023/03/23 10:08:33;;;;;;;4.40;1.20;;;;;;;13.58;100.00;100448.09;5218982;28;20033;-84
2023/03/23 10:11:27;;;;;;;2.80;1.70;;;;;;;13.05;100.00;100450.31;5205491;28;20071;-82
2023/03/23 10:14:18;;;;;;;5.47;1.50;;;;;;;12.85;100.00;100460.00;5201040;28;20291;-82
2023/03/23 10:17:13;;;;;;;3.38;1.08;;;;;;;12.97;100.00;100453.09;5205808;28;20034;-82
2023/03/23 10:20:19;;;;;;;6.07;1.38;;;;;;;13.14;100.00;100450.97;5193849;28;20680;-83
2023/03/23 10:23:23;;;;;;;6.10;2.15;;;;;;;12.78;100.00;100442.94;5193593;28;20030;-82
2023/03/23 10:25:59;;;;;;;3.25;1.73;;;;;;;12.99;100.00;100447.50;5206570;28;20092;-83
2023/03/23 10:28:52;;;;;;;7.30;1.52;;;;;;;12.98;100.00;100452.06;5207993;28;20044;-83
2023/03/23 10:31:28;;;;;;;5.22;1.90;;;;;;;13.13;100.00;100447.47;5211126;28;20562;-82
2023/03/23 10:34:08;;;;;;;5.68;1.73;;;;;;;12.99;100.00;100444.81;5208874;28;20083;-82
2023/03/23 10:36:51;;;;;;;46.38;14.57;;;;;;;13.09;100.00;100456.94;5210572;28;20513;-82
2023/03/23 10:39:28;;;;;;;5.63;2.03;;;;;;;13.02;100.00;100458.75;5210244;28;20025;-82
2023/03/23 10:42:06;;;;;;;102.72;41.10;;;;;;;13.41;100.00;100468.28;5206051;28;20025;-82
2023/03/23 10:44:38;;;;;;;6.47;2.35;;;;;;;13.42;100.00;100469.94;5206501;28;20018;-82
2023/03/23 10:47:08;;;;;;;5.70;2.08;;;;;;;13.33;100.00;100463.00;5206595;28;20074;-83
2023/03/23 10:49:42;;;;;;;8.15;2.25;;;;;;;13.21;100.00;100473.44;5206322;28;20029;-82
2023/03/23 10:52:32;;;;;;;21.67;13.88;;;;;;;13.42;100.00;100469.94;5207252;28;20029;-82
2023/03/23 10:55:22;;;;;;;7.90;2.92;;;;;;;13.30;100.00;100468.78;5207754;28;20505;-82
2023/03/23 10:58:23;;;;;;;6.55;2.00;;;;;;;13.23;100.00;100471.41;5207554;28;20025;-82
2023/03/23 11:00:54;;;;;;;4.85;1.77;;;;;;;13.10;100.00;100476.63;5208548;28;20033;-81
2023/03/23 11:03:40;;;;;;;8.75;2.55;;;;;;;13.10;100.00;100468.53;5207978;28;20026;-81
2023/03/23 11:06:20;;;;;;;5.70;1.95;;;;;;;13.03;100.00;100463.09;5207025;28;20021;-82
2023/03/23 11:08:54;;;;;;;9.00;2.53;;;;;;;13.05;100.00;100471.84;5207998;28;20068;-79
2023/03/23 11:11:29;;;;;;;9.48;3.83;;;;;;;13.29;100.00;100476.03;5207930;28;20025;-77
2023/03/23 11:14:03;;;;;;;5.75;2.22;;;;;;;13.20;100.00;100475.31;5206702;28;20017;-78
2023/03/23 11:16:35;;;;;;;7.22;2.17;;;;;;;13.21;100.00;100479.69;5206295;28;20618;-79
2023/03/23 11:19:26;;;;;;;7.47;2.25;;;;;;;13.42;100.00;100476.16;5207065;28;20076;-78
2023/03/23 11:22:08;;;;;;;8.10;2.47;;;;;;;13.74;100.00;100471.22;5206784;28;20492;-79
2023/03/23 11:25:00;;;;;;;9.68;2.42;;;;;;;13.93;100.00;100454.34;5207157;28;20029;-79
2023/03/23 11:27:32;;;;;;;12.20;3.05;;;;;;;14.38;100.00;100462.06;5206794;28;20099;-79
2023/03/23 11:30:39;;;;;;;10.30;3.63;;;;;;;14.42;100.00;100460.66;5206908;28;20025;-79
2023/03/23 11:33:12;;;;;;;10.40;2.92;;;;;;;14.35;100.00;100454.38;5205935;28;20117;-79
2023/03/23 11:35:45;;;;;;;10.43;2.00;;;;;;;14.18;100.00;100453.88;5207272;28;20367;-79
2023/03/23 11:38:19;;;;;;;15.30;4.00;;;;;;;14.46;100.00;100443.03;5207201;28;20096;-78
2023/03/23 11:40:52;;;;;;;10.23;2.75;;;;;;;14.52;100.00;100455.75;5206302;28;20130;-79
2023/03/23 11:43:24;;;;;;;13.30;3.10;;;;;;;14.54;100.00;100437.47;5207012;28;20026;-78
2023/03/23 11:46:04;;;;;;;7.53;2.30;;;;;;;14.88;100.00;100441.09;5206765;28;20037;-77
2023/03/23 11:48:42;;;;;;;17.17;3.20;;;;;;;15.14;100.00;100416.00;5205538;28;20025;-77